Time;durP1;ratioP1;P1;durP2;ratioP2;P2;SDS_P1;SDS_P2;PMS_P1;PMS_P2;Temp;Humidity;BMP_temperature;BMP_pressure;BME280_temperature;BME280_humidity;BME280_pressure;Samples;Min_cycle;Max_cycle;Signal;HPM_P1;HPM_P2
2021/03/10 00:00:06;;;;;;;34.83;22.70;;;;;;;4.08;95.49;95431.81;5090933;28;20200;-66
2021/03/10 00:02:33;;;;;;;31.73;21.17;;;;;;;4.18;95.45;95442.13;5090531;28;20223;-66
2021/03/10 00:05:00;;;;;;;33.20;21.17;;;;;;;4.24;95.68;95428.22;5090677;28;20589;-66
2021/03/10 00:07:29;;;;;;;31.27;20.20;;;;;;;4.10;96.18;95427.19;5090748;28;20199;-65
2021/03/10 00:09:56;;;;;;;37.37;21.27;;;;;;;3.83;96.25;95424.81;5090933;28;20202;-65
2021/03/10 00:12:22;;;;;;;34.53;21.10;;;;;;;3.80;98.01;95420.16;5090629;28;20242;-65
2021/03/10 00:14:49;;;;;;;34.37;20.83;;;;;;;3.49;98.44;95413.34;5090773;28;20234;-65
2021/03/10 00:17:16;;;;;;;36.50;22.70;;;;;;;3.31;98.95;95406.06;5090812;28;20283;-65
2021/03/10 00:19:44;;;;;;;34.13;22.70;;;;;;;3.28;100.00;95409.91;5090580;28;20193;-64
2021/03/10 00:22:12;;;;;;;33.07;20.77;;;;;;;3.30;100.00;95407.84;5090727;28;20211;-65
2021/03/10 00:24:39;;;;;;;35.20;21.20;;;;;;;3.30;100.00;95410.41;5090593;28;20590;-65
2021/03/10 00:27:07;;;;;;;29.20;20.00;;;;;;;3.18;100.00;95406.50;5090666;28;20230;-65
2021/03/10 00:29:34;;;;;;;31.17;20.03;;;;;;;3.16;100.00;95405.97;5090755;28;20717;-65
2021/03/10 00:32:00;;;;;;;31.70;19.77;;;;;;;3.23;100.00;95404.75;5090612;28;20230;-65
2021/03/10 00:34:27;;;;;;;29.40;19.77;;;;;;;3.20;100.00;95407.03;5090981;28;20655;-65
2021/03/10 00:36:54;;;;;;;33.93;21.43;;;;;;;3.18;100.00;95397.03;5090573;28;20287;-64
2021/03/10 00:39:21;;;;;;;32.83;21.33;;;;;;;3.18;100.00;95389.31;5090559;28;20271;-64
2021/03/10 00:41:49;;;;;;;33.73;21.57;;;;;;;3.09;100.00;95384.91;5090512;28;20295;-65
2021/03/10 00:44:16;;;;;;;34.23;21.27;;;;;;;3.13;100.00;95389.28;5090309;28;20216;-65
2021/03/10 00:46:43;;;;;;;30.93;20.60;;;;;;;3.26;100.00;95381.13;5090374;28;20312;-65
2021/03/10 00:49:11;;;;;;;33.60;20.57;;;;;;;3.24;100.00;95396.00;5090379;28;20191;-65
2021/03/10 00:51:37;;;;;;;36.60;21.20;;;;;;;3.26;100.00;95380.38;5090532;28;20222;-66
2021/03/10 00:54:05;;;;;;;36.03;22.23;;;;;;;3.21;100.00;95386.25;5089842;28;20223;-66
2021/03/10 00:56:32;;;;;;;36.73;22.23;;;;;;;3.31;100.00;95376.03;5090314;28;20234;-65
2021/03/10 00:58:59;;;;;;;32.93;20.03;;;;;;;3.32;100.00;95376.81;5090141;28;20293;-64
2021/03/10 01:01:26;;;;;;;32.67;20.13;;;;;;;3.30;100.00;95369.34;5090154;28;20234;-65
2021/03/10 01:03:53;;;;;;;32.77;20.47;;;;;;;3.23;100.00;95362.91;5090219;28;20219;-65
2021/03/10 01:06:24;;;;;;;33.83;21.27;;;;;;;3.26;100.00;95367.53;5090289;28;20227;-66
2021/03/10 01:08:51;;;;;;;31.43;20.60;;;;;;;3.33;100.00;95358.59;5090495;28;20211;-66
2021/03/10 01:11:18;;;;;;;35.63;22.20;;;;;;;3.25;100.00;95353.91;5090052;28;20793;-65
2021/03/10 01:13:45;;;;;;;32.20;20.30;;;;;;;3.27;100.00;95357.00;5089995;28;20571;-66
2021/03/10 01:16:14;;;;;;;30.27;20.00;;;;;;;3.33;100.00;95361.16;5090135;28;20670;-66
2021/03/10 01:18:41;;;;;;;31.13;20.43;;;;;;;3.41;100.00;95350.38;5090113;28;20741;-65
2021/03/10 01:21:08;;;;;;;32.07;20.57;;;;;;;3.43;100.00;95347.56;5090020;28;20238;-66
2021/03/10 01:23:35;;;;;;;32.57;20.23;;;;;;;3.49;100.00;95351.69;5090101;28;20219;-65
2021/03/10 01:26:02;;;;;;;29.43;19.87;;;;;;;3.54;100.00;95349.13;5090403;28;20327;-66
2021/03/10 01:28:30;;;;;;;25.93;18.17;;;;;;;3.53;100.00;95351.97;5089827;28;20271;-66
2021/03/10 01:30:57;;;;;;;28.00;17.67;;;;;;;3.39;100.00;95346.50;5089927;28;20710;-66
2021/03/10 01:33:25;;;;;;;23.63;16.43;;;;;;;3.44;100.00;95349.88;5089940;28;20283;-65
2021/03/10 01:35:51;;;;;;;22.67;16.17;;;;;;;3.37;100.00;95349.34;5089869;28;20279;-66
2021/03/10 01:38:18;;;;;;;28.30;17.97;;;;;;;3.33;100.00;95338.03;5090365;28;20642;-65
2021/03/10 01:40:46;;;;;;;27.83;18.27;;;;;;;3.20;100.00;95332.56;5089783;28;20279;-64
2021/03/10 01:43:13;;;;;;;29.93;17.97;;;;;;;3.32;100.00;95323.66;5089793;28;20191;-65
2021/03/10 01:45:40;;;;;;;31.50;18.33;;;;;;;3.36;100.00;95321.34;5089623;28;20313;-65
2021/03/10 01:48:10;;;;;;;29.43;19.73;;;;;;;3.34;100.00;95326.72;5089682;28;20690;-66
2021/03/10 01:50:38;;;;;;;31.83;20.17;;;;;;;3.47;100.00;95322.94;5089694;28;20206;-65
2021/03/10 01:53:05;;;;;;;34.73;22.40;;;;;;;3.46;100.00;95331.66;5089643;28;20418;-65
2021/03/10 01:55:32;;;;;;;35.20;21.23;;;;;;;3.63;100.00;95316.03;5089742;28;20260;-66
2021/03/10 01:57:59;;;;;;;32.00;21.60;;;;;;;3.71;100.00;95312.97;5089699;28;20210;-65
2021/03/10 02:00:28;;;;;;;32.50;20.97;;;;;;;3.74;100.00;95313.22;5089809;28;20329;-65
2021/03/10 02:02:55;;;;;;;33.07;21.67;;;;;;;3.90;100.00;95304.50;5089485;28;20331;-66
2021/03/10 02:05:24;;;;;;;38.23;23.20;;;;;;;3.95;100.00;95298.59;5089474;28;20275;-66
2021/03/10 02:08:21;;;;;;;35.73;23.40;;;;;;;3.88;100.00;95303.25;5093067;28;20649;-65
2021/03/10 02:11:02;;;;;;;33.73;21.67;;;;;;;3.98;100.00;95287.06;5093145;28;20286;-65
2021/03/10 02:13:39;;;;;;;32.47;21.27;;;;;;;3.94;99.41;95286.78;5093617;28;20226;-65
2021/03/10 02:16:15;;;;;;;41.10;25.70;;;;;;;3.97;100.00;95275.22;5093307;28;20282;-64
2021/03/10 02:18:46;;;;;;;40.00;23.33;;;;;;;3.91;99.74;95279.59;5093828;28;20248;-65
2021/03/10 02:21:23;;;;;;;38.83;25.57;;;;;;;4.11;99.53;95277.03;5093711;28;20208;-64
2021/03/10 02:24:11;;;;;;;38.10;24.17;;;;;;;4.09;98.85;95279.06;5093531;28;20200;-65
2021/03/10 02:26:59;;;;;;;44.13;23.50;;;;;;;4.09;99.27;95271.34;5093280;28;20231;-65
2021/03/10 02:29:30;;;;;;;35.00;21.30;;;;;;;4.17;98.32;95273.44;5093832;28;20192;-64
2021/03/10 02:31:58;;;;;;;33.33;21.17;;;;;;;4.13;98.59;95272.41;5093306;28;20245;-65
2021/03/10 02:34:27;;;;;;;35.93;23.37;;;;;;;4.12;98.43;95268.28;5093368;28;20743;-65
2021/03/10 02:36:56;;;;;;;37.50;22.40;;;;;;;4.04;99.90;95255.94;5093067;28;20196;-65
2021/03/10 02:39:25;;;;;;;36.87;21.30;;;;;;;4.09;98.76;95253.38;5092991;28;20275;-66
2021/03/10 02:41:53;;;;;;;39.63;23.87;;;;;;;4.04;99.02;95255.16;5092821;28;20196;-65
2021/03/10 02:44:22;;;;;;;37.27;22.03;;;;;;;4.12;99.86;95254.66;5092617;28;20654;-65
2021/03/10 02:47:00;;;;;;;36.87;21.40;;;;;;;3.99;99.93;95258.50;5092513;28;20345;-66
2021/03/10 02:49:28;;;;;;;35.70;23.27;;;;;;;4.12;99.79;95250.28;5092785;28;20553;-66
2021/03/10 02:51:58;;;;;;;37.87;22.10;;;;;;;4.02;100.00;95258.00;5092671;28;20749;-65
2021/03/10 02:54:25;;;;;;;34.67;21.63;;;;;;;4.10;99.65;95259.28;5092530;28;20233;-65
2021/03/10 02:56:53;;;;;;;37.67;21.90;;;;;;;3.97;99.04;95254.66;5092590;28;20275;-66
2021/03/10 02:59:20;;;;;;;40.67;23.23;;;;;;;3.98;99.33;95248.50;5092523;28;20200;-65
2021/03/10 03:01:47;;;;;;;40.00;23.83;;;;;;;4.02;100.00;95241.81;5092233;28;20263;-66
2021/03/10 03:04:14;;;;;;;36.63;22.67;;;;;;;4.04;100.00;95252.59;5092577;28;20663;-66
2021/03/10 03:06:41;;;;;;;37.80;22.77;;;;;;;3.98;99.85;95246.69;5092204;28;20223;-66
2021/03/10 03:09:08;;;;;;;41.97;22.70;;;;;;;3.92;100.00;95250.28;5092238;28;20231;-66
2021/03/10 03:11:35;;;;;;;35.70;21.53;;;;;;;3.93;100.00;95244.13;5092122;28;20235;-66
2021/03/10 03:14:04;;;;;;;39.03;23.13;;;;;;;3.95;100.00;95247.19;5092395;28;20224;-66
2021/03/10 03:16:32;;;;;;;41.07;25.97;;;;;;;3.94;100.00;95248.22;5091861;28;20241;-66
2021/03/10 03:18:59;;;;;;;39.60;24.57;;;;;;;3.88;100.00;95251.84;5092004;28;20289;-66
2021/03/10 03:21:28;;;;;;;41.53;24.43;;;;;;;3.85;100.00;95247.19;5092144;28;20291;-67
2021/03/10 03:23:56;;;;;;;39.57;23.83;;;;;;;3.90;100.00;95255.69;5092028;28;20604;-67
2021/03/10 03:26:24;;;;;;;40.40;24.57;;;;;;;3.88;100.00;95249.28;5091808;28;20630;-67
2021/03/10 03:28:52;;;;;;;41.17;24.93;;;;;;;3.77;100.00;95250.28;5091828;28;20279;-66
2021/03/10 03:31:22;;;;;;;44.63;26.00;;;;;;;3.77;100.00;95243.34;5092186;28;20650;-66
2021/03/10 03:33:49;;;;;;;46.40;28.67;;;;;;;3.71;100.00;95249.50;5092086;28;20581;-66
2021/03/10 03:36:16;;;;;;;42.93;24.63;;;;;;;3.75;100.00;95242.06;5091906;28;20210;-67
2021/03/10 03:38:45;;;;;;;39.03;23.60;;;;;;;3.83;100.00;95246.69;5091578;28;20744;-67
2021/03/10 03:41:12;;;;;;;36.10;22.77;;;;;;;3.87;100.00;95247.72;5091618;28;20353;-67
2021/03/10 03:43:39;;;;;;;41.00;23.40;;;;;;;3.92;100.00;95242.59;5091357;28;20302;-67
2021/03/10 03:46:07;;;;;;;41.50;25.53;;;;;;;3.79;100.00;95243.84;5091374;28;20266;-66
2021/03/10 03:48:33;;;;;;;42.60;24.20;;;;;;;3.89;100.00;95243.84;5091462;28;20210;-66
2021/03/10 03:51:01;;;;;;;41.50;24.17;;;;;;;3.92;100.00;95239.25;5091415;28;20198;-67
2021/03/10 03:53:28;;;;;;;44.37;24.23;;;;;;;3.90;100.00;95242.84;5091632;28;20279;-65
2021/03/10 03:55:56;;;;;;;47.17;25.77;;;;;;;3.90;100.00;95245.41;5091646;28;20249;-66
2021/03/10 03:58:22;;;;;;;61.93;31.90;;;;;;;3.87;100.00;95243.34;5091148;28;20267;-66
2021/03/10 04:00:49;;;;;;;44.33;26.07;;;;;;;3.78;100.00;95239.75;5091023;28;20658;-66
2021/03/10 04:03:16;;;;;;;45.37;24.93;;;;;;;3.82;100.00;95243.34;5091228;28;20320;-68
2021/03/10 04:05:43;;;;;;;46.63;24.80;;;;;;;3.86;100.00;95238.47;5091053;28;20310;-67
2021/03/10 04:08:10;;;;;;;42.13;24.47;;;;;;;3.80;100.00;95239.47;5091252;28;20202;-67
2021/03/10 04:10:38;;;;;;;49.97;25.50;;;;;;;3.76;100.00;95246.94;5090950;28;20230;-66
2021/03/10 04:13:07;;;;;;;42.50;25.57;;;;;;;3.83;100.00;95236.41;5090847;28;20286;-67
2021/03/10 04:15:37;;;;;;;40.30;24.67;;;;;;;3.70;100.00;95239.47;5091107;28;20282;-66
2021/03/10 04:18:06;;;;;;;41.50;24.70;;;;;;;3.66;100.00;95238.44;5090953;28;20400;-67
2021/03/10 04:20:33;;;;;;;42.43;25.47;;;;;;;3.68;100.00;95226.13;5090851;28;20231;-65
2021/03/10 04:23:00;;;;;;;41.17;24.13;;;;;;;3.59;100.00;95232.78;5090714;28;20235;-67
2021/03/10 04:25:27;;;;;;;40.90;23.87;;;;;;;3.62;100.00;95232.28;5090726;28;20287;-67
2021/03/10 04:27:54;;;;;;;41.33;24.50;;;;;;;3.83;100.00;95224.34;5090918;28;20199;-67
2021/03/10 04:30:24;;;;;;;40.67;24.90;;;;;;;3.73;100.00;95224.34;5090167;28;20288;-67
2021/03/10 04:32:51;;;;;;;39.93;23.13;;;;;;;3.70;100.00;95219.69;5090827;28;20685;-67
2021/03/10 04:35:19;;;;;;;39.73;24.00;;;;;;;3.76;100.00;95208.41;5090559;28;20231;-67
2021/03/10 04:37:46;;;;;;;37.77;24.43;;;;;;;3.80;100.00;95218.94;5090549;28;20200;-67
2021/03/10 04:40:14;;;;;;;40.00;24.67;;;;;;;3.80;100.00;95221.50;5090691;28;20295;-66
2021/03/10 04:42:42;;;;;;;34.93;23.67;;;;;;;3.76;100.00;95223.03;5090570;28;20301;-67
2021/03/10 04:45:12;;;;;;;35.20;23.57;;;;;;;3.78;100.00;95221.78;5090251;28;20223;-66
2021/03/10 04:47:40;;;;;;;36.43;22.43;;;;;;;3.82;100.00;95216.88;5090303;28;20227;-65
2021/03/10 04:50:08;;;;;;;41.47;25.33;;;;;;;3.81;100.00;95220.47;5090680;28;20246;-65
2021/03/10 04:52:35;;;;;;;40.63;26.10;;;;;;;3.78;100.00;95215.84;5090292;28;20307;-66
2021/03/10 04:55:04;;;;;;;38.77;24.50;;;;;;;3.81;100.00;95220.47;5090744;28;20279;-65
2021/03/10 04:57:31;;;;;;;43.53;24.73;;;;;;;3.97;100.00;95206.59;5090668;28;20227;-66
2021/03/10 04:59:58;;;;;;;41.33;24.83;;;;;;;3.84;100.00;95204.53;5090312;28;20273;-67
2021/03/10 05:02:25;;;;;;;42.73;25.27;;;;;;;3.82;100.00;95201.47;5090217;28;20238;-66
2021/03/10 05:04:52;;;;;;;42.67;26.47;;;;;;;3.72;100.00;95209.16;5090096;28;20586;-66
2021/03/10 05:07:19;;;;;;;42.93;26.83;;;;;;;3.70;100.00;95208.66;5090007;28;20228;-67
2021/03/10 05:09:46;;;;;;;50.30;28.43;;;;;;;3.72;100.00;95209.16;5090355;28;20278;-66
2021/03/10 05:12:13;;;;;;;52.47;28.53;;;;;;;3.74;100.00;95214.81;5089932;28;20282;-67
2021/03/10 05:14:40;;;;;;;65.77;33.97;;;;;;;3.84;100.00;95199.38;5089836;28;20199;-66
2021/03/10 05:17:07;;;;;;;49.27;27.23;;;;;;;3.82;100.00;95204.03;5090087;28;20228;-66
2021/03/10 05:19:34;;;;;;;41.17;26.20;;;;;;;3.81;100.00;95199.91;5089799;28;20227;-65
2021/03/10 05:22:02;;;;;;;37.80;24.93;;;;;;;3.86;100.00;95208.41;5090243;28;20232;-66
2021/03/10 05:24:29;;;;;;;41.93;23.93;;;;;;;3.88;100.00;95203.00;5090110;28;20206;-65
2021/03/10 05:26:57;;;;;;;42.47;25.47;;;;;;;3.87;100.00;95198.88;5089983;28;20259;-67
2021/03/10 05:29:24;;;;;;;46.77;26.73;;;;;;;3.83;100.00;95208.16;5090253;28;20279;-66
2021/03/10 05:31:51;;;;;;;44.70;27.93;;;;;;;3.87;100.00;95204.03;5089809;28;20238;-67
2021/03/10 05:34:18;;;;;;;43.13;27.30;;;;;;;3.89;100.00;95207.09;5090029;28;20644;-65
2021/03/10 05:36:44;;;;;;;49.63;28.40;;;;;;;3.92;100.00;95208.41;5090024;28;20678;-67
2021/03/10 05:39:13;;;;;;;49.80;32.57;;;;;;;3.87;100.00;95201.47;5089715;28;20303;-66
2021/03/10 05:41:40;;;;;;;46.03;29.87;;;;;;;3.98;100.00;95199.66;5093074;28;20196;-66
2021/03/10 05:44:09;;;;;;;48.43;30.10;;;;;;;3.94;100.00;95196.81;5093804;28;20277;-66
2021/03/10 05:46:37;;;;;;;43.10;26.60;;;;;;;3.87;100.00;95196.31;5093566;28;21367;-67
2021/03/10 05:49:04;;;;;;;49.80;29.23;;;;;;;3.83;100.00;95203.00;5093686;28;20196;-66
2021/03/10 05:51:31;;;;;;;47.90;31.00;;;;;;;3.82;100.00;95206.59;5093991;28;20206;-64
2021/03/10 05:53:59;;;;;;;52.17;31.43;;;;;;;3.86;100.00;95198.13;5093268;28;20200;-66
2021/03/10 05:56:27;;;;;;;77.93;40.90;;;;;;;3.89;100.00;95195.03;5093398;28;20553;-66
2021/03/10 05:58:55;;;;;;;51.80;30.00;;;;;;;3.84;100.00;95204.53;5093063;28;20286;-66
2021/03/10 06:01:23;;;;;;;73.50;44.00;;;;;;;3.76;100.00;95210.19;5093017;28;20232;-69
2021/03/10 06:03:54;;;;;;;46.93;30.33;;;;;;;3.81;100.00;95200.69;5092916;28;20587;-66
2021/03/10 06:06:21;;;;;;;71.17;43.17;;;;;;;3.84;100.00;95213.00;5093247;28;20730;-67
2021/03/10 06:08:48;;;;;;;172.43;91.00;;;;;;;3.89;100.00;95207.88;5093066;28;20188;-66
2021/03/10 06:11:27;;;;;;;65.90;39.17;;;;;;;3.97;100.00;95208.41;5093055;28;20680;-67
2021/03/10 06:13:55;;;;;;;69.23;37.47;;;;;;;3.92;100.00;95208.41;5093594;28;20289;-67
2021/03/10 06:16:25;;;;;;;179.37;91.47;;;;;;;3.93;100.00;95208.16;5092913;28;20227;-67
2021/03/10 06:19:03;;;;;;;88.03;52.93;;;;;;;3.95;100.00;95213.78;5093339;28;20268;-67
2021/03/10 06:21:30;;;;;;;105.47;62.10;;;;;;;3.99;100.00;95214.03;5092765;28;20227;-66
2021/03/10 06:23:58;;;;;;;56.53;36.27;;;;;;;4.02;100.00;95204.03;5092784;28;20195;-67
2021/03/10 06:26:28;;;;;;;72.80;46.07;;;;;;;4.04;100.00;95209.66;5092672;28;20685;-66
2021/03/10 06:28:56;;;;;;;53.10;29.07;;;;;;;4.02;100.00;95211.72;5093099;28;20195;-66
2021/03/10 06:31:24;;;;;;;52.80;31.77;;;;;;;3.91;100.00;95199.91;5092717;28;20214;-66
2021/03/10 06:33:59;;;;;;;49.77;29.40;;;;;;;3.96;100.00;95206.84;5092666;28;20216;-66
2021/03/10 06:36:27;;;;;;;50.03;30.07;;;;;;;4.05;100.00;95213.00;5092581;28;20338;-66
2021/03/10 06:38:55;;;;;;;62.23;30.70;;;;;;;4.07;100.00;95211.72;5092616;28;20685;-66
2021/03/10 06:41:34;;;;;;;49.63;31.03;;;;;;;4.02;100.00;95210.97;5092887;28;20293;-66
2021/03/10 06:44:01;;;;;;;151.97;80.13;;;;;;;4.09;100.00;95212.22;5092439;28;20284;-65
2021/03/10 06:46:29;;;;;;;46.83;30.47;;;;;;;4.00;100.00;95213.78;5092180;28;20345;-65
2021/03/10 06:49:01;;;;;;;105.47;49.90;;;;;;;3.99;100.00;95226.88;5092346;28;20195;-66
2021/03/10 06:51:29;;;;;;;54.37;31.87;;;;;;;3.87;100.00;95214.31;5091802;28;20199;-65
2021/03/10 06:53:56;;;;;;;47.77;29.93;;;;;;;3.62;100.00;95222.78;5092011;28;20207;-66
2021/03/10 06:56:27;;;;;;;38.03;26.43;;;;;;;3.60;100.00;95224.03;5092390;28;20199;-66
2021/03/10 06:59:05;;;;;;;43.47;26.97;;;;;;;3.59;100.00;95232.78;5092297;28;20202;-65
2021/03/10 07:01:40;;;;;;;50.73;29.27;;;;;;;3.48;100.00;95232.00;5092157;28;20355;-66
2021/03/10 07:04:08;;;;;;;41.73;27.03;;;;;;;3.44;100.00;95242.00;5092239;28;20207;-66
2021/03/10 07:06:36;;;;;;;41.43;27.10;;;;;;;3.50;100.00;95244.59;5091882;28;20233;-66
2021/03/10 07:09:06;;;;;;;91.30;49.80;;;;;;;3.49;100.00;95248.19;5091843;28;20236;-67
2021/03/10 07:11:34;;;;;;;80.00;42.70;;;;;;;3.52;100.00;95252.81;5091829;28;20200;-65
2021/03/10 07:14:01;;;;;;;75.87;42.87;;;;;;;3.51;100.00;95248.69;5091833;28;20286;-65
2021/03/10 07:16:32;;;;;;;57.40;33.57;;;;;;;3.50;100.00;95249.72;5091727;28;20192;-66
2021/03/10 07:19:00;;;;;;;52.03;32.33;;;;;;;3.45;100.00;95240.97;5091752;28;20598;-66
2021/03/10 07:21:32;;;;;;;48.63;30.73;;;;;;;3.27;100.00;95250.97;5091841;28;20726;-66
2021/03/10 07:24:02;;;;;;;48.63;30.90;;;;;;;3.28;100.00;95250.72;5091689;28;20291;-64
2021/03/10 07:26:29;;;;;;;54.10;33.40;;;;;;;3.27;100.00;95249.16;5091437;28;20223;-66
2021/03/10 07:29:03;;;;;;;52.53;32.50;;;;;;;3.35;100.00;95253.03;5091800;28;20219;-66
2021/03/10 07:31:31;;;;;;;54.63;31.83;;;;;;;3.11;100.00;95242.44;5091542;28;20209;-66
2021/03/10 07:33:59;;;;;;;55.10;33.07;;;;;;;3.23;100.00;95242.22;5091527;28;20233;-66
2021/03/10 07:36:33;;;;;;;38.83;24.50;;;;;;;3.12;100.00;95244.00;5091411;28;20195;-67
2021/03/10 07:39:00;;;;;;;42.53;25.40;;;;;;;3.08;100.00;95247.31;5091432;28;20193;-66
2021/03/10 07:41:38;;;;;;;73.73;43.27;;;;;;;2.97;100.00;95242.16;5091555;28;20192;-65
2021/03/10 07:44:19;;;;;;;68.23;40.63;;;;;;;2.91;100.00;95245.72;5091772;28;20233;-67
2021/03/10 07:46:48;;;;;;;58.13;34.07;;;;;;;2.98;100.00;95245.50;5091230;28;20283;-67
2021/03/10 07:49:19;;;;;;;44.90;27.37;;;;;;;2.77;100.00;95247.19;5091028;28;20657;-66
2021/03/10 07:51:46;;;;;;;67.93;37.93;;;;;;;2.82;100.00;95239.53;5091255;28;20186;-67
2021/03/10 07:54:23;;;;;;;52.97;30.13;;;;;;;2.88;100.00;95248.00;5091045;28;20245;-66
2021/03/10 07:56:51;;;;;;;46.10;27.17;;;;;;;2.85;100.00;95243.38;5091196;28;20568;-66
2021/03/10 07:59:18;;;;;;;53.17;30.87;;;;;;;2.86;100.00;95238.00;5091003;28;20662;-67
2021/03/10 08:01:47;;;;;;;68.37;36.17;;;;;;;2.70;100.00;95243.28;5090565;28;20698;-67
2021/03/10 08:04:16;;;;;;;56.57;32.63;;;;;;;2.69;100.00;95244.34;5090854;28;20274;-67
2021/03/10 08:06:44;;;;;;;51.27;30.63;;;;;;;2.63;100.00;95237.63;5090713;28;20825;-66
2021/03/10 08:09:11;;;;;;;47.03;29.20;;;;;;;2.67;100.00;95225.84;5090971;28;20283;-66
2021/03/10 08:11:43;;;;;;;55.33;33.47;;;;;;;2.65;100.00;95230.44;5090971;28;20206;-66
2021/03/10 08:14:11;;;;;;;49.70;29.70;;;;;;;2.65;100.00;95235.56;5090942;28;20205;-66
2021/03/10 08:16:46;;;;;;;53.03;33.03;;;;;;;2.62;100.00;95225.81;5090562;28;20189;-66
2021/03/10 08:19:14;;;;;;;63.63;31.53;;;;;;;2.44;100.00;95222.66;5090512;28;20613;-65
2021/03/10 08:21:49;;;;;;;55.17;32.30;;;;;;;2.37;100.00;95237.50;5090699;28;20196;-65
2021/03/10 08:24:16;;;;;;;56.30;32.33;;;;;;;2.37;100.00;95221.34;5090623;28;20677;-66
2021/03/10 08:26:43;;;;;;;59.63;35.27;;;;;;;2.43;100.00;95215.22;5090431;28;20323;-66
2021/03/10 08:29:10;;;;;;;63.70;37.50;;;;;;;2.46;100.00;95212.94;5090463;28;20236;-66
2021/03/10 08:31:44;;;;;;;40.37;26.70;;;;;;;2.50;100.00;95219.09;5090772;28;20290;-67
2021/03/10 08:34:11;;;;;;;48.10;27.90;;;;;;;2.56;100.00;95222.47;5090452;28;20201;-66
2021/03/10 08:36:39;;;;;;;52.40;27.87;;;;;;;2.50;100.00;95213.19;5090171;28;20759;-67
2021/03/10 08:39:08;;;;;;;62.80;32.07;;;;;;;2.60;100.00;95215.81;5090160;28;20316;-67
2021/03/10 08:41:46;;;;;;;65.73;32.07;;;;;;;2.51;100.00;95202.69;5090122;28;20671;-66
2021/03/10 08:44:13;;;;;;;80.57;37.70;;;;;;;2.54;100.00;95207.31;5090071;28;20218;-66
2021/03/10 08:46:41;;;;;;;70.30;34.83;;;;;;;2.59;100.00;95207.34;5090030;28;20732;-65
2021/03/10 08:49:32;;;;;;;63.83;33.90;;;;;;;2.77;100.00;95221.53;5089964;28;20237;-66
2021/03/10 08:52:15;;;;;;;70.87;37.33;;;;;;;2.79;100.00;95218.72;5079792;28;20252;-66
2021/03/10 08:54:50;;;;;;;60.80;34.00;;;;;;;2.80;100.00;95208.19;5090261;28;20663;-66
2021/03/10 08:57:17;;;;;;;94.50;47.83;;;;;;;2.82;100.00;95218.22;5090120;28;20289;-67
2021/03/10 08:59:45;;;;;;;44.53;27.73;;;;;;;2.73;100.00;95214.59;5090049;28;20222;-66
2021/03/10 09:02:12;;;;;;;38.90;25.43;;;;;;;2.72;100.00;95210.47;5089792;28;20268;-66
2021/03/10 09:04:46;;;;;;;68.90;29.77;;;;;;;2.70;100.00;95209.94;5089931;28;20298;-66
2021/03/10 09:07:18;;;;;;;45.40;23.47;;;;;;;2.69;100.00;95214.31;5090122;28;20232;-67
2021/03/10 09:09:45;;;;;;;46.00;22.43;;;;;;;2.67;100.00;95221.50;5090079;28;20266;-66
2021/03/10 09:12:13;;;;;;;27.17;15.80;;;;;;;2.62;100.00;95218.13;5089936;28;20195;-67
2021/03/10 09:14:41;;;;;;;38.73;19.70;;;;;;;2.45;100.00;95208.81;5090514;28;20668;-66
2021/03/10 09:17:08;;;;;;;60.70;29.60;;;;;;;2.55;100.00;95219.13;5096451;28;20283;-66
2021/03/10 09:19:40;;;;;;;29.77;17.70;;;;;;;2.42;100.00;95217.00;5096703;28;20207;-67
2021/03/10 09:22:18;;;;;;;37.93;21.57;;;;;;;2.48;100.00;95221.16;5096631;28;20258;-65
2021/03/10 09:24:54;;;;;;;32.53;17.80;;;;;;;2.52;100.00;95219.63;5096598;28;20256;-66
2021/03/10 09:27:24;;;;;;;30.00;16.83;;;;;;;2.39;100.00;95220.06;5096323;28;20608;-66
2021/03/10 09:29:51;;;;;;;33.73;17.83;;;;;;;2.47;100.00;95229.88;5096502;28;20190;-68
2021/03/10 09:32:18;;;;;;;35.00;17.73;;;;;;;2.52;100.00;95219.63;5096816;28;20202;-67
2021/03/10 09:34:49;;;;;;;31.17;17.13;;;;;;;2.41;100.00;95223.16;5096442;28;20668;-67
2021/03/10 09:37:22;;;;;;;53.13;31.00;;;;;;;2.33;100.00;95223.63;5096275;28;20282;-65
2021/03/10 09:39:51;;;;;;;41.43;22.90;;;;;;;2.41;100.00;95228.28;5096226;28;20201;-65
2021/03/10 09:42:18;;;;;;;35.87;19.90;;;;;;;2.37;100.00;95221.34;5096314;28;20187;-65
2021/03/10 09:44:47;;;;;;;59.37;34.40;;;;;;;2.41;100.00;95228.28;5096098;28;20219;-64
2021/03/10 09:47:21;;;;;;;40.00;21.47;;;;;;;2.26;100.00;95228.19;5096116;28;20227;-65
2021/03/10 09:49:50;;;;;;;36.97;20.10;;;;;;;2.17;100.00;95220.19;5096269;28;20194;-64
2021/03/10 09:52:18;;;;;;;68.73;30.00;;;;;;;2.22;100.00;95214.34;5096309;28;20690;-65
2021/03/10 09:54:50;;;;;;;70.10;29.80;;;;;;;2.34;100.00;95206.47;5096108;28;20206;-65
2021/03/10 09:57:22;;;;;;;60.53;28.73;;;;;;;2.40;100.00;95213.91;5096132;28;20564;-66
2021/03/10 09:59:49;;;;;;;38.87;19.83;;;;;;;2.38;100.00;95208.28;5095864;28;20218;-66
2021/03/10 10:02:16;;;;;;;30.63;17.27;;;;;;;2.38;100.00;95208.28;5095824;28;20784;-67
2021/03/10 10:04:44;;;;;;;27.03;17.20;;;;;;;2.21;100.00;95212.78;5095989;28;20543;-66
2021/03/10 10:07:12;;;;;;;27.63;17.03;;;;;;;2.22;100.00;95214.34;5095874;28;20606;-66
2021/03/10 10:09:40;;;;;;;29.00;16.33;;;;;;;2.31;100.00;95209.50;5095926;28;20238;-66
2021/03/10 10:12:08;;;;;;;40.03;20.60;;;;;;;2.19;100.00;95207.16;5096270;28;20242;-65
2021/03/10 10:14:35;;;;;;;23.27;14.03;;;;;;;2.32;100.00;95203.38;5095978;28;20602;-66
2021/03/10 10:17:04;;;;;;;23.73;13.50;;;;;;;2.37;100.00;95204.16;5095854;28;20202;-66
2021/03/10 10:19:31;;;;;;;25.90;14.70;;;;;;;2.38;100.00;95213.41;5095916;28;20198;-66
2021/03/10 10:21:59;;;;;;;27.87;15.50;;;;;;;2.40;100.00;95215.69;5095926;28;20219;-66
2021/03/10 10:24:26;;;;;;;37.97;18.50;;;;;;;2.37;100.00;95216.22;5095915;28;20281;-67
2021/03/10 10:26:57;;;;;;;25.63;14.77;;;;;;;2.28;100.00;95218.47;5093284;28;20743;-65
2021/03/10 10:29:25;;;;;;;24.60;13.97;;;;;;;2.25;100.00;95215.63;5093254;28;20205;-67
2021/03/10 10:31:52;;;;;;;45.07;22.07;;;;;;;2.33;100.00;95218.50;5092400;28;20292;-68
2021/03/10 10:34:22;;;;;;;44.10;23.63;;;;;;;2.36;100.00;95214.66;5092582;28;20204;-66
2021/03/10 10:36:49;;;;;;;38.23;19.43;;;;;;;2.33;100.00;95215.94;5092776;28;20232;-66
2021/03/10 10:39:16;;;;;;;37.97;20.20;;;;;;;2.34;100.00;95211.59;5092421;28;20278;-64
2021/03/10 10:41:42;;;;;;;38.40;19.57;;;;;;;2.37;100.00;95211.84;5092438;28;20282;-66
2021/03/10 10:44:10;;;;;;;40.50;21.57;;;;;;;2.25;100.00;95213.81;5092453;28;20634;-66
2021/03/10 10:46:37;;;;;;;41.73;20.97;;;;;;;2.29;100.00;95214.88;5092074;28;20227;-67
2021/03/10 10:49:04;;;;;;;46.43;24.37;;;;;;;2.38;100.00;95210.84;5092332;28;20688;-66
2021/03/10 10:51:31;;;;;;;42.40;22.80;;;;;;;2.29;100.00;95214.88;5092227;28;20285;-67
2021/03/10 10:53:58;;;;;;;37.27;18.37;;;;;;;2.33;100.00;95213.38;5092173;28;20222;-66
2021/03/10 10:56:25;;;;;;;35.20;21.50;;;;;;;2.11;100.00;95217.84;5092374;28;20340;-68
2021/03/10 10:58:52;;;;;;;48.07;24.07;;;;;;;2.22;100.00;95216.91;5092130;28;20564;-67
2021/03/10 11:01:19;;;;;;;39.67;22.67;;;;;;;2.25;100.00;95210.50;5092160;28;20280;-66
2021/03/10 11:03:47;;;;;;;37.17;20.23;;;;;;;2.13;100.00;95221.72;5091978;28;20730;-67
2021/03/10 11:06:14;;;;;;;40.07;19.70;;;;;;;2.22;100.00;95214.34;5091840;28;20207;-67
2021/03/10 11:08:41;;;;;;;41.80;22.90;;;;;;;2.23;100.00;95208.19;5092204;28;20199;-66
2021/03/10 11:11:08;;;;;;;31.30;18.23;;;;;;;2.31;100.00;95204.38;5092039;28;20290;-67
2021/03/10 11:13:35;;;;;;;34.70;20.73;;;;;;;2.27;100.00;95206.69;5091715;28;20277;-67
2021/03/10 11:16:02;;;;;;;37.33;19.83;;;;;;;2.26;100.00;95205.13;5091913;28;20282;-67
2021/03/10 11:18:30;;;;;;;29.83;16.03;;;;;;;2.16;100.00;95194.81;5091885;28;20280;-67
2021/03/10 11:20:56;;;;;;;45.47;23.97;;;;;;;2.26;100.00;95200.00;5091563;28;20278;-67
2021/03/10 11:23:23;;;;;;;42.27;24.20;;;;;;;2.32;100.00;95198.25;5091433;28;20282;-66